Time;durP1;ratioP1;P1;durP2;ratioP2;P2;SDS_P1;SDS_P2;PMS_P1;PMS_P2;Temp;Humidity;BMP_temperature;BMP_pressure;BME280_temperature;BME280_humidity;BME280_pressure;Samples;Min_cycle;Max_cycle;Signal;HPM_P1;HPM_P2
2022/08/01 00:01:49;;;;;;;7.00;6.30;;;18.80;99.90;;;;;;5085652;28;20217;-67
2022/08/01 00:04:18;;;;;;;8.27;5.80;;;18.80;99.90;;;;;;5087052;28;20201;-67
2022/08/01 00:06:45;;;;;;;6.47;5.63;;;18.80;99.90;;;;;;5079780;28;20201;-67
2022/08/01 00:09:12;;;;;;;8.23;5.88;;;18.80;99.90;;;;;;5083486;28;20198;-67
2022/08/01 00:11:38;;;;;;;6.80;5.97;;;18.90;99.90;;;;;;5077443;28;20214;-67
2022/08/01 00:14:05;;;;;;;6.78;5.35;;;19.00;99.90;;;;;;5085843;28;20634;-67
2022/08/01 00:16:33;;;;;;;5.53;5.03;;;18.80;99.90;;;;;;5089318;28;20235;-67
2022/08/01 00:19:00;;;;;;;7.78;6.05;;;18.80;99.90;;;;;;5091793;28;20208;-67
2022/08/01 00:21:29;;;;;;;6.20;5.22;;;18.90;99.90;;;;;;5087920;28;20244;-67
2022/08/01 00:23:56;;;;;;;6.65;5.60;;;18.80;99.90;;;;;;5086733;28;20209;-67
2022/08/01 00:26:22;;;;;;;6.50;4.85;;;18.90;99.90;;;;;;5083109;28;20243;-68
2022/08/01 00:28:49;;;;;;;9.57;5.60;;;18.90;99.90;;;;;;5088291;28;20204;-67
2022/08/01 00:31:16;;;;;;;8.13;5.22;;;19.00;99.90;;;;;;5078891;28;20202;-68
2022/08/01 00:33:43;;;;;;;6.30;4.82;;;18.90;99.90;;;;;;5087600;28;20207;-77
2022/08/01 00:36:12;;;;;;;6.50;5.38;;;19.00;99.90;;;;;;5086835;28;20202;-78
2022/08/01 00:38:40;;;;;;;7.07;5.03;;;19.00;99.90;;;;;;5091400;28;20216;-78
2022/08/01 00:41:08;;;;;;;5.95;5.22;;;19.00;99.90;;;;;;5087100;28;20548;-78
2022/08/01 00:43:35;;;;;;;8.15;5.60;;;18.90;99.90;;;;;;5093351;28;20239;-78
2022/08/01 00:46:08;;;;;;;6.05;5.43;;;19.00;99.90;;;;;;5093475;28;20200;-78
2022/08/01 00:48:34;;;;;;;7.32;5.82;;;19.00;99.90;;;;;;5093444;28;20182;-78
2022/08/01 00:51:09;;;;;;;8.95;5.57;;;19.00;99.90;;;;;;5093466;28;20213;-78
2022/08/01 00:53:36;;;;;;;8.55;5.40;;;19.00;99.90;;;;;;5093312;28;20196;-78
2022/08/01 00:56:24;;;;;;;9.32;5.28;;;19.00;99.90;;;;;;5093305;28;20209;-78
2022/08/01 00:58:51;;;;;;;10.38;5.57;;;19.00;99.90;;;;;;5093488;28;20533;-78
2022/08/01 01:05:20;;;;;;;7.60;5.50;;;19.00;99.90;;;;;;5072878;28;20253;-78
2022/08/01 01:07:54;;;;;;;9.23;5.80;;;19.10;99.90;;;;;;5072929;28;20196;-78
2022/08/01 01:10:26;;;;;;;7.22;5.82;;;19.10;99.90;;;;;;5081152;28;20251;-78
2022/08/01 01:13:00;;;;;;;11.68;6.28;;;19.00;99.90;;;;;;5095544;28;20221;-78
2022/08/01 01:15:52;;;;;;;8.10;5.53;;;19.00;99.90;;;;;;5096504;28;20193;-78
2022/08/01 01:18:24;;;;;;;7.13;5.45;;;19.10;99.90;;;;;;5095522;28;20214;-78
2022/08/01 01:20:59;;;;;;;6.32;5.28;;;19.10;99.90;;;;;;5096299;28;20219;-78
2022/08/01 01:24:09;;;;;;;5.65;4.95;;;19.00;99.90;;;;;;5092148;28;20213;-78
2022/08/01 01:33:09;;;;;;;6.90;4.60;;;19.00;99.90;;;;;;5076439;28;20258;-78
2022/08/01 01:35:42;;;;;;;7.25;3.80;;;18.90;99.90;;;;;;5075984;28;20202;-78
2022/08/01 01:41:21;;;;;;;3.88;3.20;;;19.00;99.90;;;;;;5083037;28;20185;-77
2022/08/01 01:44:27;;;;;;;4.90;3.00;;;19.00;99.90;;;;;;5096405;28;20186;-79
2022/08/01 01:46:54;;;;;;;4.85;2.90;;;18.90;99.90;;;;;;5095919;28;20296;-78
2022/08/01 01:49:51;;;;;;;4.43;3.13;;;18.90;99.90;;;;;;5096048;28;20186;-78
2022/08/01 01:52:20;;;;;;;2.65;2.42;;;19.00;99.90;;;;;;5095917;28;20198;-78
2022/08/01 01:54:51;;;;;;;4.68;2.65;;;18.90;99.90;;;;;;5096337;28;20272;-78
2022/08/01 01:57:20;;;;;;;3.83;2.80;;;18.90;99.90;;;;;;5096006;28;20273;-78
2022/08/01 02:00:16;;;;;;;5.45;2.72;;;18.90;99.90;;;;;;5096163;28;20190;-78
2022/08/01 02:02:45;;;;;;;2.78;2.58;;;18.90;99.90;;;;;;5096047;28;20296;-78
2022/08/01 02:05:43;;;;;;;4.45;2.60;;;18.80;99.90;;;;;;5095923;28;20188;-78
2022/08/01 02:08:15;;;;;;;5.75;2.45;;;18.80;99.90;;;;;;5096045;28;20190;-78
2022/08/01 02:11:17;;;;;;;3.33;2.55;;;18.70;99.90;;;;;;5090684;28;20240;-78
2022/08/01 02:14:02;;;;;;;4.03;2.85;;;18.70;99.90;;;;;;5086241;28;20224;-77
2022/08/01 02:16:43;;;;;;;5.28;2.95;;;18.80;99.90;;;;;;5087673;28;20228;-78
2022/08/01 02:19:11;;;;;;;5.50;3.13;;;18.80;99.90;;;;;;5081303;28;20561;-78
2022/08/01 02:21:42;;;;;;;5.97;2.78;;;18.80;99.90;;;;;;5092909;28;20201;-78
2022/08/01 02:24:15;;;;;;;3.35;2.65;;;18.80;99.90;;;;;;5091477;28;20202;-78
2022/08/01 02:26:51;;;;;;;6.03;2.95;;;18.80;99.90;;;;;;5094933;28;20205;-78
2022/08/01 02:29:23;;;;;;;3.17;2.90;;;18.90;99.90;;;;;;5095026;28;20280;-78
2022/08/01 02:31:57;;;;;;;4.65;3.40;;;18.90;99.90;;;;;;5084617;28;20198;-78
2022/08/01 02:34:28;;;;;;;3.70;2.97;;;18.90;99.90;;;;;;5083179;28;20212;-78
2022/08/01 02:36:58;;;;;;;3.58;3.28;;;18.90;99.90;;;;;;5084780;28;20200;-78
2022/08/01 02:39:29;;;;;;;4.18;3.45;;;18.90;99.90;;;;;;5093105;28;20213;-77
2022/08/01 02:42:01;;;;;;;4.25;3.22;;;18.80;99.90;;;;;;5076253;28;20201;-77
2022/08/01 02:44:33;;;;;;;3.20;2.90;;;18.70;99.90;;;;;;5084324;28;20281;-77
2022/08/01 02:47:03;;;;;;;2.90;2.60;;;18.50;99.90;;;;;;5086159;28;20548;-77
2022/08/01 02:49:33;;;;;;;2.97;2.35;;;18.50;99.90;;;;;;5085679;28;20202;-77
2022/08/01 02:52:02;;;;;;;3.35;2.28;;;18.50;99.90;;;;;;5082250;28;20204;-77
2022/08/01 02:54:31;;;;;;;3.00;2.60;;;18.40;99.90;;;;;;5082527;28;20203;-76
2022/08/01 02:57:00;;;;;;;4.55;2.10;;;18.50;99.90;;;;;;5088861;28;20202;-77
2022/08/01 02:59:29;;;;;;;2.15;1.95;;;18.40;99.90;;;;;;5085862;28;20198;-77
2022/08/01 03:01:57;;;;;;;3.78;1.90;;;18.40;99.90;;;;;;5082050;28;20206;-77
2022/08/01 03:04:25;;;;;;;2.45;2.25;;;18.30;99.90;;;;;;5087762;28;20198;-77
2022/08/01 03:06:55;;;;;;;2.28;2.17;;;18.40;99.90;;;;;;5085319;28;20197;-76
2022/08/01 03:09:23;;;;;;;2.78;2.03;;;18.30;99.90;;;;;;5090799;28;20290;-77
2022/08/01 03:11:53;;;;;;;2.30;2.10;;;18.40;99.90;;;;;;5091057;28;20627;-76
2022/08/01 03:14:22;;;;;;;2.95;2.10;;;18.30;99.90;;;;;;5082648;28;20206;-76
2022/08/01 03:16:52;;;;;;;2.80;2.50;;;18.30;99.90;;;;;;5081458;28;20206;-77
2022/08/01 03:19:20;;;;;;;2.42;2.22;;;18.40;99.90;;;;;;5081599;28;20289;-77
2022/08/01 03:21:49;;;;;;;3.67;2.53;;;18.40;99.90;;;;;;5080284;28;20202;-77
2022/08/01 03:24:17;;;;;;;3.33;2.22;;;18.30;99.90;;;;;;5085132;28;20309;-77
2022/08/01 03:26:45;;;;;;;2.90;2.70;;;18.40;99.90;;;;;;5073601;28;20281;-77
2022/08/01 03:29:17;;;;;;;3.25;2.70;;;18.50;99.90;;;;;;5090711;28;20655;-77
2022/08/01 03:31:47;;;;;;;9.45;6.15;;;18.50;99.90;;;;;;5088169;28;20201;-77
2022/08/01 03:34:14;;;;;;;5.43;4.10;;;18.50;99.90;;;;;;5085130;28;20190;-67
2022/08/01 03:36:47;;;;;;;4.03;2.83;;;18.50;99.90;;;;;;5090490;28;20205;-67
2022/08/01 03:39:15;;;;;;;3.25;2.95;;;18.50;99.90;;;;;;5080876;28;20573;-68
2022/08/01 03:41:49;;;;;;;5.53;3.00;;;18.60;99.90;;;;;;5086160;28;20194;-70
2022/08/01 03:44:25;;;;;;;5.32;3.72;;;18.60;99.90;;;;;;5077939;28;20256;-70
2022/08/01 03:46:57;;;;;;;6.50;3.83;;;18.50;99.90;;;;;;5070777;28;20213;-70
2022/08/01 03:49:27;;;;;;;5.20;3.75;;;18.50;99.90;;;;;;5088434;28;20569;-70
2022/08/01 03:51:55;;;;;;;4.57;3.70;;;18.40;99.90;;;;;;5082611;28;20690;-70
2022/08/01 03:54:25;;;;;;;3.85;3.50;;;18.40;99.90;;;;;;5082415;28;20197;-70
2022/08/01 03:56:52;;;;;;;4.85;3.70;;;18.40;99.90;;;;;;5081600;28;20720;-70
2022/08/01 03:59:22;;;;;;;4.25;3.78;;;18.30;99.90;;;;;;5090537;28;20202;-70
2022/08/01 04:01:49;;;;;;;6.18;3.58;;;18.30;99.90;;;;;;5089528;28;20664;-70
2022/08/01 04:04:16;;;;;;;6.18;4.38;;;18.40;99.90;;;;;;5088934;28;20213;-70
2022/08/01 04:06:44;;;;;;;7.63;4.40;;;18.30;99.90;;;;;;5085811;28;20297;-70
2022/08/01 04:09:12;;;;;;;7.32;4.35;;;18.40;99.90;;;;;;5089484;28;20193;-70
2022/08/01 04:11:39;;;;;;;5.28;3.97;;;18.30;99.90;;;;;;5085541;28;20226;-70
2022/08/01 04:14:06;;;;;;;6.57;4.45;;;18.30;99.90;;;;;;5088688;28;20280;-70
2022/08/01 04:16:35;;;;;;;5.68;4.40;;;18.30;99.90;;;;;;5087496;28;20232;-70
2022/08/01 04:19:01;;;;;;;6.40;4.05;;;18.30;99.90;;;;;;5087037;28;20194;-70
2022/08/01 04:21:31;;;;;;;4.82;4.28;;;18.40;99.90;;;;;;5088361;28;20289;-70
2022/08/01 04:24:03;;;;;;;4.88;4.38;;;18.40;99.90;;;;;;5087475;28;20222;-70
2022/08/01 04:26:31;;;;;;;5.85;3.97;;;18.30;99.90;;;;;;5090391;28;20217;-70
2022/08/01 04:28:58;;;;;;;5.35;4.60;;;18.30;99.90;;;;;;5090178;28;20206;-70
2022/08/01 04:31:26;;;;;;;6.50;4.65;;;18.30;99.90;;;;;;5087482;28;20237;-70
2022/08/01 04:33:56;;;;;;;5.25;4.30;;;18.30;99.90;;;;;;5085870;28;20198;-70
2022/08/01 04:36:25;;;;;;;4.85;4.35;;;18.40;99.90;;;;;;5089562;28;20205;-70
2022/08/01 04:38:58;;;;;;;5.35;4.10;;;18.20;99.90;;;;;;5089575;28;20198;-70
2022/08/01 04:41:26;;;;;;;8.15;5.45;;;18.20;99.90;;;;;;5084566;28;20209;-70
2022/08/01 04:43:54;;;;;;;7.45;5.57;;;18.20;99.90;;;;;;5088226;28;20217;-70
2022/08/01 04:46:23;;;;;;;9.07;5.32;;;18.30;99.90;;;;;;5087948;28;20234;-70
2022/08/01 04:48:51;;;;;;;8.35;5.82;;;18.40;99.90;;;;;;5091668;28;20711;-70
2022/08/01 04:51:21;;;;;;;10.10;6.03;;;18.40;99.90;;;;;;5093968;28;20198;-70
2022/08/01 04:53:50;;;;;;;7.05;6.00;;;18.50;99.90;;;;;;5090660;28;20210;-70
2022/08/01 04:56:18;;;;;;;6.45;5.28;;;18.50;99.90;;;;;;5089866;28;20288;-71
2022/08/01 04:58:45;;;;;;;8.75;6.00;;;18.50;99.90;;;;;;5091769;28;20288;-70
2022/08/01 05:01:12;;;;;;;7.15;5.50;;;18.50;99.90;;;;;;5087065;28;20204;-70
2022/08/01 05:03:39;;;;;;;7.80;5.03;;;18.60;99.90;;;;;;5090819;28;20217;-70
2022/08/01 05:06:06;;;;;;;9.02;5.55;;;18.60;99.90;;;;;;5089563;28;20206;-71
2022/08/01 05:08:35;;;;;;;6.35;4.55;;;18.60;99.90;;;;;;5089024;28;20197;-71
2022/08/01 05:11:02;;;;;;;5.35;4.15;;;18.70;99.90;;;;;;5090888;28;20242;-71
2022/08/01 05:13:30;;;;;;;7.40;4.75;;;18.70;99.90;;;;;;5090119;28;20288;-71
2022/08/01 05:15:57;;;;;;;5.65;4.28;;;18.60;99.90;;;;;;5088446;28;20210;-71
2022/08/01 05:18:23;;;;;;;5.65;4.90;;;18.70;99.90;;;;;;5090641;28;20202;-71
2022/08/01 05:20:51;;;;;;;5.93;5.18;;;18.60;99.90;;;;;;5091054;28;20202;-70
2022/08/01 05:23:18;;;;;;;6.40;5.00;;;18.60;99.90;;;;;;5085954;28;20222;-71
2022/08/01 05:25:48;;;;;;;6.85;5.07;;;18.60;99.90;;;;;;5089186;28;20586;-70
2022/08/01 05:28:18;;;;;;;6.63;5.07;;;18.60;99.90;;;;;;5092526;28;20205;-71
2022/08/01 05:30:45;;;;;;;5.60;4.93;;;18.50;99.90;;;;;;5087360;28;20279;-71
2022/08/01 05:33:11;;;;;;;5.57;4.88;;;18.60;99.90;;;;;;5084142;28;20483;-71
2022/08/01 05:35:38;;;;;;;5.85;5.25;;;18.70;99.90;;;;;;5083411;28;20626;-71
2022/08/01 05:38:05;;;;;;;6.65;5.20;;;18.70;99.90;;;;;;5089967;28;20208;-71
2022/08/01 05:40:32;;;;;;;7.22;4.68;;;18.60;99.90;;;;;;5084982;28;20711;-70
2022/08/01 05:43:00;;;;;;;4.82;4.25;;;18.50;99.90;;;;;;5085430;28;20312;-71
2022/08/01 05:45:27;;;;;;;3.90;3.50;;;18.50;99.90;;;;;;5084709;28;20204;-71
2022/08/01 05:47:54;;;;;;;3.08;2.78;;;18.40;99.90;;;;;;5083067;28;20213;-71
2022/08/01 05:50:21;;;;;;;2.47;2.28;;;18.30;99.90;;;;;;5084168;28;20197;-71
2022/08/01 05:52:48;;;;;;;2.95;2.75;;;18.40;99.90;;;;;;5088370;28;20221;-71
2022/08/01 05:55:14;;;;;;;1.35;1.27;;;18.50;99.90;;;;;;5089706;28;20204;-71
2022/08/01 05:57:41;;;;;;;1.40;1.40;;;18.40;99.90;;;;;;5083252;28;20212;-71
2022/08/01 06:00:12;;;;;;;1.50;1.40;;;18.60;99.90;;;;;;5089037;28;20202;-71
2022/08/01 06:02:42;;;;;;;1.90;1.80;;;18.70;99.90;;;;;;5086901;28;20629;-71
2022/08/01 06:05:09;;;;;;;2.22;2.10;;;18.70;99.90;;;;;;5087444;28;20282;-71
2022/08/01 06:07:38;;;;;;;2.13;1.92;;;18.80;99.90;;;;;;5084438;28;20288;-71
2022/08/01 06:10:08;;;;;;;2.60;2.40;;;18.80;99.90;;;;;;5078718;28;20271;-71
2022/08/01 06:12:36;;;;;;;2.13;1.98;;;18.90;99.90;;;;;;5084770;28;20204;-71
2022/08/01 06:15:03;;;;;;;2.50;2.30;;;18.70;99.90;;;;;;5088452;28;20204;-71
2022/08/01 06:17:31;;;;;;;2.83;1.80;;;18.80;99.90;;;;;;5087912;28;20193;-71
2022/08/01 06:19:58;;;;;;;2.50;2.30;;;19.00;99.90;;;;;;5088890;28;20587;-71
2022/08/01 06:22:24;;;;;;;2.40;2.20;;;19.00;99.90;;;;;;5084227;28;20640;-72
2022/08/01 06:24:51;;;;;;;2.45;2.00;;;19.30;99.90;;;;;;5084888;28;20691;-72
2022/08/01 06:27:18;;;;;;;2.67;2.47;;;19.60;99.90;;;;;;5088187;28;20658;-72
2022/08/01 06:29:45;;;;;;;3.00;2.38;;;19.60;99.90;;;;;;5081855;28;20549;-72
2022/08/01 06:32:12;;;;;;;2.40;2.20;;;19.50;99.90;;;;;;5083644;28;20632;-72
2022/08/01 06:34:40;;;;;;;5.18;2.33;;;19.50;99.90;;;;;;5089490;28;20703;-71
2022/08/01 06:37:07;;;;;;;3.35;2.60;;;19.30;99.90;;;;;;5080230;28;20205;-71
2022/08/01 06:39:34;;;;;;;2.47;2.28;;;19.30;99.90;;;;;;5085041;28;20293;-72
2022/08/01 06:42:01;;;;;;;3.53;3.10;;;19.30;99.90;;;;;;5084669;28;20208;-71
2022/08/01 06:44:28;;;;;;;4.82;3.47;;;19.30;99.90;;;;;;5085311;28;20300;-71
2022/08/01 06:46:54;;;;;;;3.50;3.20;;;19.40;99.90;;;;;;5082692;28;20194;-72
2022/08/01 06:49:21;;;;;;;4.03;3.63;;;19.40;99.90;;;;;;5085539;28;20560;-72
2022/08/01 06:51:50;;;;;;;6.15;4.75;;;19.50;99.90;;;;;;5084165;28;20243;-71
2022/08/01 06:54:16;;;;;;;8.02;5.53;;;19.50;99.90;;;;;;5079094;28;20736;-70
2022/08/01 06:56:43;;;;;;;4.63;4.10;;;19.50;99.90;;;;;;5083342;28;20208;-71
2022/08/01 06:59:10;;;;;;;5.43;4.15;;;19.40;99.90;;;;;;5085931;28;20193;-71
2022/08/01 07:01:37;;;;;;;5.07;4.28;;;19.30;99.90;;;;;;5073650;28;20225;-71
2022/08/01 07:04:05;;;;;;;5.15;3.88;;;19.30;99.90;;;;;;5087909;28;20216;-71
2022/08/01 07:06:32;;;;;;;4.35;3.80;;;19.40;99.90;;;;;;5085118;28;20205;-71
2022/08/01 07:09:00;;;;;;;2.63;2.15;;;19.40;99.90;;;;;;5084089;28;20225;-71
2022/08/01 07:11:27;;;;;;;2.50;2.30;;;19.20;99.90;;;;;;5085352;28;20198;-71
2022/08/01 07:13:54;;;;;;;3.50;2.72;;;19.00;99.90;;;;;;5084448;28;20221;-71
2022/08/01 07:16:21;;;;;;;3.30;3.00;;;18.90;99.90;;;;;;5087355;28;20209;-71
2022/08/01 07:18:48;;;;;;;2.40;2.20;;;18.90;99.90;;;;;;5079703;28;20674;-71
2022/08/01 07:21:15;;;;;;;3.78;2.58;;;18.70;99.90;;;;;;5086807;28;20197;-71
2022/08/01 07:23:42;;;;;;;2.80;2.60;;;18.60;99.90;;;;;;5076736;28;20233;-71
2022/08/01 07:26:10;;;;;;;3.75;3.00;;;18.70;99.90;;;;;;5088667;28;20208;-71
2022/08/01 07:28:37;;;;;;;4.75;2.92;;;18.80;99.90;;;;;;5083965;28;20201;-70
2022/08/01 07:31:04;;;;;;;4.30;3.35;;;18.70;99.90;;;;;;5077610;28;20200;-70
2022/08/01 07:33:31;;;;;;;5.80;4.55;;;18.80;99.90;;;;;;5081142;28;20194;-70
2022/08/01 07:35:58;;;;;;;4.93;2.72;;;18.70;99.90;;;;;;5080808;28;20284;-70
2022/08/01 07:38:25;;;;;;;3.20;2.90;;;19.10;99.90;;;;;;5080191;28;20204;-70
2022/08/01 07:40:52;;;;;;;4.47;2.95;;;19.20;99.90;;;;;;5086309;28;20212;-70
2022/08/01 07:43:20;;;;;;;2.72;2.53;;;19.30;99.90;;;;;;5084943;28;20197;-71
2022/08/01 07:45:47;;;;;;;2.65;2.45;;;19.40;99.90;;;;;;5086261;28;20209;-71
2022/08/01 07:48:14;;;;;;;3.15;2.40;;;19.30;99.90;;;;;;5083906;28;20210;-71
2022/08/01 07:50:41;;;;;;;2.58;2.38;;;19.60;99.90;;;;;;5085510;28;20532;-71
2022/08/01 07:53:09;;;;;;;2.72;2.53;;;19.50;99.90;;;;;;5083274;28;20202;-70
2022/08/01 07:55:37;;;;;;;2.60;2.40;;;19.40;99.90;;;;;;5081117;28;20190;-70
2022/08/01 07:58:03;;;;;;;3.03;2.65;;;19.60;99.90;;;;;;5083521;28;20285;-70
2022/08/01 08:00:32;;;;;;;3.40;3.10;;;19.50;99.90;;;;;;5084857;28;20302;-70
2022/08/01 08:02:59;;;;;;;3.22;2.95;;;19.40;99.90;;;;;;5084374;28;20261;-70
2022/08/01 08:05:27;;;;;;;3.15;2.53;;;19.50;99.90;;;;;;5086719;28;20707;-71
2022/08/01 08:07:54;;;;;;;5.45;2.50;;;19.50;99.90;;;;;;5085882;28;20198;-71
2022/08/01 08:10:21;;;;;;;2.90;2.70;;;19.60;99.90;;;;;;5084140;28;20198;-71
2022/08/01 08:12:48;;;;;;;2.60;2.40;;;19.50;99.90;;;;;;5081813;28;20615;-71
2022/08/01 08:15:15;;;;;;;3.30;2.65;;;19.60;99.90;;;;;;5085013;28;20236;-71
2022/08/01 08:17:43;;;;;;;4.78;2.70;;;19.60;99.90;;;;;;5084837;28;20296;-71
2022/08/01 08:20:11;;;;;;;2.90;2.70;;;19.60;99.90;;;;;;5087503;28;20593;-71
2022/08/01 08:22:38;;;;;;;2.80;2.58;;;19.70;99.90;;;;;;5088809;28;20197;-71
2022/08/01 08:25:07;;;;;;;3.40;2.60;;;20.00;99.90;;;;;;5090659;28;20223;-71
2022/08/01 08:27:34;;;;;;;2.90;2.53;;;20.00;99.90;;;;;;5087899;28;20208;-71
2022/08/01 08:30:00;;;;;;;2.47;2.28;;;20.00;99.90;;;;;;5085912;28;20659;-71
2022/08/01 08:32:27;;;;;;;3.47;2.50;;;20.00;99.90;;;;;;5091123;28;20288;-71
2022/08/01 08:34:56;;;;;;;2.50;2.30;;;20.10;99.90;;;;;;5087183;28;20282;-71
2022/08/01 08:37:23;;;;;;;2.40;2.20;;;19.90;99.90;;;;;;5091645;28;20233;-71
2022/08/01 08:39:49;;;;;;;3.70;2.78;;;19.80;99.90;;;;;;5086943;28;20197;-71
2022/08/01 08:42:16;;;;;;;2.08;1.98;;;19.80;99.90;;;;;;5090185;28;20198;-71
2022/08/01 08:44:44;;;;;;;2.40;2.25;;;20.00;99.90;;;;;;5081842;28;20217;-71
2022/08/01 08:47:13;;;;;;;3.63;2.63;;;20.00;99.90;;;;;;5087816;28;20195;-71
2022/08/01 08:49:43;;;;;;;3.10;2.85;;;20.00;99.90;;;;;;5089133;28;20224;-70
2022/08/01 08:52:13;;;;;;;2.35;2.15;;;19.70;99.90;;;;;;5088598;28;20194;-70
2022/08/01 08:54:42;;;;;;;2.40;2.20;;;19.70;99.90;;;;;;5086682;28;20198;-71
2022/08/01 08:57:11;;;;;;;2.65;2.50;;;19.70;99.90;;;;;;5085889;28;20281;-71
2022/08/01 08:59:38;;;;;;;2.65;2.42;;;19.90;99.90;;;;;;5083058;28;20205;-71
2022/08/01 09:02:05;;;;;;;2.28;2.08;;;20.00;99.90;;;;;;5083155;28;20251;-70
2022/08/01 09:04:33;;;;;;;2.50;2.30;;;19.70;99.90;;;;;;5088618;28;20222;-70
2022/08/01 09:07:00;;;;;;;4.00;2.40;;;19.70;99.90;;;;;;5086720;28;20214;-70
2022/08/01 09:09:28;;;;;;;4.00;2.60;;;19.90;99.90;;;;;;5088197;28;20197;-70
2022/08/01 09:11:55;;;;;;;3.35;3.05;;;20.00;99.90;;;;;;5086676;28;20300;-70
2022/08/01 09:14:26;;;;;;;3.05;2.70;;;20.10;99.90;;;;;;5086875;28;20193;-70
2022/08/01 09:17:01;;;;;;;3.50;2.65;;;20.40;99.90;;;;;;5083933;28;20293;-70
2022/08/01 09:19:36;;;;;;;2.80;2.60;;;20.80;99.90;;;;;;5083448;28;20212;-70
2022/08/01 09:22:05;;;;;;;3.17;2.50;;;21.00;99.90;;;;;;5088591;28;20197;-71
2022/08/01 09:24:35;;;;;;;3.38;2.53;;;21.00;99.90;;;;;;5088598;28;20217;-71
2022/08/01 09:27:15;;;;;;;3.10;2.25;;;21.00;99.90;;;;;;5084140;28;20202;-71
2022/08/01 09:29:44;;;;;;;2.00;1.90;;;20.80;99.90;;;;;;5080100;28;20206;-71
2022/08/01 09:32:11;;;;;;;2.10;1.90;;;20.60;99.90;;;;;;5082467;28;20201;-71
2022/08/01 09:34:38;;;;;;;2.47;1.80;;;20.90;99.90;;;;;;5080394;28;20198;-71
2022/08/01 09:37:05;;;;;;;1.98;1.45;;;20.70;99.90;;;;;;5085430;28;20198;-71
2022/08/01 09:39:37;;;;;;;1.80;1.70;;;21.00;99.90;;;;;;5081024;28;20613;-71
2022/08/01 09:42:21;;;;;;;1.40;1.35;;;21.00;99.90;;;;;;5081506;28;20241;-71
2022/08/01 09:44:48;;;;;;;2.05;1.70;;;20.90;99.90;;;;;;5083792;28;21095;-71
2022/08/01 09:47:16;;;;;;;1.33;1.30;;;20.70;99.90;;;;;;5077806;28;20202;-71
2022/08/01 09:49:45;;;;;;;2.08;1.88;;;20.40;99.90;;;;;;5087092;28;20234;-71
2022/08/01 09:52:14;;;;;;;2.13;1.90;;;20.30;99.90;;;;;;5086504;28;20596;-71
2022/08/01 09:54:44;;;;;;;1.50;1.40;;;20.60;99.90;;;;;;5084460;28;20205;-71
2022/08/01 09:57:13;;;;;;;1.63;1.52;;;20.60;99.90;;;;;;5086633;28;20198;-71
2022/08/01 09:59:43;;;;;;;2.00;1.83;;;20.70;99.90;;;;;;5086800;28;20201;-71
2022/08/01 10:02:13;;;;;;;2.60;2.03;;;20.90;99.90;;;;;;5085219;28;20576;-71
2022/08/01 10:04:48;;;;;;;2.38;2.05;;;20.90;99.90;;;;;;5084664;28;20225;-71
2022/08/01 10:07:16;;;;;;;3.22;2.92;;;20.60;99.90;;;;;;5088474;28;20198;-71
2022/08/01 10:09:47;;;;;;;5.28;1.88;;;20.50;99.90;;;;;;5088532;28;20229;-77
2022/08/01 10:12:16;;;;;;;1.38;1.27;;;20.20;99.90;;;;;;5081187;28;20198;-77
2022/08/01 10:14:44;;;;;;;2.00;1.15;;;20.30;99.90;;;;;;5085126;28;20676;-77
2022/08/01 10:17:15;;;;;;;1.73;1.30;;;20.30;99.90;;;;;;5082773;28;20251;-77
2022/08/01 10:19:44;;;;;;;2.65;1.30;;;20.50;99.90;;;;;;5083269;28;20263;-77
2022/08/01 10:22:16;;;;;;;1.33;1.10;;;20.60;99.90;;;;;;5087808;28;20205;-77
2022/08/01 10:24:47;;;;;;;1.92;1.55;;;20.60;99.90;;;;;;5082108;28;20253;-77
2022/08/01 10:27:16;;;;;;;1.23;1.13;;;20.80;99.90;;;;;;5083847;28;20659;-77
2022/08/01 10:29:47;;;;;;;1.30;1.20;;;21.00;99.90;;;;;;5086105;28;20202;-77
2022/08/01 10:32:14;;;;;;;1.25;1.15;;;21.30;99.90;;;;;;5084169;28;20253;-77
2022/08/01 10:34:41;;;;;;;1.50;0.93;;;21.20;99.90;;;;;;5083735;28;20202;-77
2022/08/01 10:37:08;;;;;;;2.17;1.50;;;21.10;99.90;;;;;;5085925;28;20212;-77
2022/08/01 10:39:36;;;;;;;1.55;1.20;;;21.00;99.90;;;;;;5085986;28;20202;-77
2022/08/01 10:42:04;;;;;;;1.50;1.40;;;21.40;99.90;;;;;;5085148;28;20202;-78
2022/08/01 10:44:32;;;;;;;1.60;1.20;;;21.60;99.90;;;;;;5085751;28;20209;-77
2022/08/01 10:47:08;;;;;;;2.88;1.40;;;21.30;99.90;;;;;;5084958;28;20288;-77
2022/08/01 10:49:40;;;;;;;2.75;1.80;;;21.40;99.90;;;;;;5066943;28;20205;-77
2022/08/01 10:52:14;;;;;;;2.42;2.17;;;21.20;99.90;;;;;;5085235;28;20293;-77
2022/08/01 10:54:41;;;;;;;2.03;1.92;;;21.10;99.90;;;;;;5086835;28;20201;-77
2022/08/01 10:57:10;;;;;;;2.10;1.90;;;21.00;99.90;;;;;;5089894;28;20197;-77
2022/08/01 10:59:50;;;;;;;2.88;2.10;;;21.20;99.90;;;;;;5083234;28;20197;-77
2022/08/01 11:02:29;;;;;;;2.22;1.80;;;21.30;99.90;;;;;;5088338;28;20203;-78
2022/08/01 11:05:02;;;;;;;2.20;2.00;;;21.20;99.90;;;;;;5087093;28;20220;-77
2022/08/01 11:07:48;;;;;;;1.92;1.83;;;21.30;99.90;;;;;;5089518;28;20276;-77
2022/08/01 11:10:29;;;;;;;2.22;2.03;;;21.50;99.90;;;;;;5074419;28;20193;-77
2022/08/01 11:12:58;;;;;;;2.20;2.10;;;21.70;99.90;;;;;;5087355;28;20706;-78
2022/08/01 11:15:26;;;;;;;2.92;1.98;;;22.00;99.90;;;;;;5090596;28;20237;-77
2022/08/01 11:17:55;;;;;;;2.95;2.40;;;21.80;99.90;;;;;;5089625;28;20598;-78
2022/08/01 11:20:24;;;;;;;2.65;2.30;;;22.10;99.90;;;;;;5090352;28;20196;-77
2022/08/01 11:23:20;;;;;;;2.58;2.17;;;22.10;99.90;;;;;;5085299;28;20211;-77
2022/08/01 11:26:35;;;;;;;2.47;2.22;;;21.70;99.90;;;;;;5087305;28;20296;-77
2022/08/01 11:29:16;;;;;;;4.55;2.80;;;21.50;99.90;;;;;;5007533;28;20196;-78
2022/08/01 11:31:43;;;;;;;4.45;3.50;;;21.30;99.90;;;;;;5003859;28;20608;-77
2022/08/01 11:34:16;;;;;;;4.38;3.95;;;21.30;99.90;;;;;;5005740;28;20251;-77
2022/08/01 11:36:43;;;;;;;5.85;4.00;;;21.40;99.90;;;;;;5004325;28;20287;-77
2022/08/01 11:39:16;;;;;;;3.70;3.40;;;21.30;99.90;;;;;;5005295;28;20689;-77
2022/08/01 11:41:44;;;;;;;4.60;3.50;;;21.50;99.90;;;;;;5008010;28;20200;-78
2022/08/01 11:44:18;;;;;;;6.00;3.78;;;21.50;99.90;;;;;;5004123;28;20608;-77
2022/08/01 11:47:00;;;;;;;3.22;2.90;;;21.50;99.90;;;;;;5044132;28;20691;-77
2022/08/01 11:49:50;;;;;;;5.72;3.00;;;21.70;99.90;;;;;;5084711;28;20557;-78
2022/08/01 11:52:19;;;;;;;3.58;2.55;;;22.10;99.90;;;;;;5085390;28;20639;-78
2022/08/01 11:54:49;;;;;;;2.85;2.65;;;22.40;99.90;;;;;;5087369;28;20208;-78
2022/08/01 11:57:20;;;;;;;2.83;2.63;;;22.30;99.90;;;;;;5075919;28;20587;-78
2022/08/01 11:59:51;;;;;;;4.22;2.95;;;22.00;99.90;;;;;;5082599;28;20691;-78
2022/08/01 12:02:20;;;;;;;5.20;3.58;;;22.10;99.90;;;;;;5081514;28;20204;-78
2022/08/01 12:04:49;;;;;;;7.07;4.00;;;21.90;99.90;;;;;;5087073;28;20208;-78
2022/08/01 12:07:18;;;;;;;5.05;4.13;;;22.10;99.90;;;;;;5084306;28;20672;-78
2022/08/01 12:10:06;;;;;;;4.85;3.70;;;22.30;99.90;;;;;;5082952;28;20229;-78
2022/08/01 12:12:35;;;;;;;7.38;3.50;;;22.20;99.90;;;;;;5085276;28;20656;-78
2022/08/01 12:15:06;;;;;;;3.88;2.85;;;22.50;99.90;;;;;;5090082;28;20210;-78
2022/08/01 12:17:35;;;;;;;7.30;3.05;;;22.40;99.90;;;;;;5080375;28;20199;-78
2022/08/01 12:20:03;;;;;;;8.18;3.35;;;22.40;99.90;;;;;;5085837;28;20237;-78
2022/08/01 12:22:53;;;;;;;5.55;3.58;;;22.40;99.90;;;;;;5086691;28;20197;-78
2022/08/01 12:25:20;;;;;;;4.43;3.00;;;22.10;99.90;;;;;;5084109;28;20224;-78
2022/08/01 12:28:18;;;;;;;3.75;3.00;;;22.00;99.90;;;;;;5092812;28;20198;-78
2022/08/01 12:30:49;;;;;;;4.70;3.47;;;22.20;99.90;;;;;;5087733;28;20219;-78
2022/08/01 12:33:19;;;;;;;7.43;3.13;;;22.20;99.90;;;;;;5079609;28;20202;-78
2022/08/01 12:39:08;;;;;;;4.53;3.00;;;21.90;99.90;;;;;;5083037;28;20219;-79
2022/08/01 12:41:43;;;;;;;7.05;2.83;;;22.10;99.90;;;;;;5087877;28;20636;-79
2022/08/01 12:44:14;;;;;;;5.97;2.72;;;22.00;99.90;;;;;;5090121;28;20280;-78
2022/08/01 12:46:43;;;;;;;4.03;2.75;;;22.20;99.90;;;;;;5085046;28;20207;-79
2022/08/01 12:52:32;;;;;;;5.20;2.45;;;23.20;99.90;;;;;;5089635;28;20181;-78
2022/08/01 12:58:21;;;;;;;5.47;3.30;;;23.30;99.90;;;;;;5089400;28;20733;-79
2022/08/01 13:01:10;;;;;;;4.28;3.45;;;22.80;99.90;;;;;;5085854;28;20289;-79
2022/08/01 13:03:38;;;;;;;5.50;3.70;;;22.80;99.90;;;;;;5092370;28;20285;-79
2022/08/01 13:06:12;;;;;;;5.68;3.28;;;22.80;99.90;;;;;;5088718;28;20561;-79
2022/08/01 13:08:39;;;;;;;4.18;2.83;;;23.20;99.90;;;;;;5084290;28;20198;-79
2022/08/01 13:11:08;;;;;;;3.50;3.20;;;23.90;99.90;;;;;;5092652;28;20285;-79
2022/08/01 13:13:40;;;;;;;4.82;2.90;;;23.90;99.70;;;;;;5091700;28;20203;-79
2022/08/01 13:16:08;;;;;;;2.78;2.53;;;23.60;99.90;;;;;;5083981;28;20217;-72
2022/08/01 13:18:36;;;;;;;4.95;2.95;;;23.40;94.80;;;;;;5082025;28;20601;-72
2022/08/01 13:21:14;;;;;;;5.07;3.03;;;24.00;97.70;;;;;;5083354;28;20210;-72
2022/08/01 13:23:41;;;;;;;9.25;3.33;;;24.00;95.30;;;;;;5083770;28;20210;-72
2022/08/01 13:26:08;;;;;;;4.97;3.20;;;23.80;96.40;;;;;;5081901;28;20214;-72